createdAt,value
2022-07-28T00:00:12.893Z,54.01
2022-07-28T00:02:39.865Z,54.66
2022-07-28T00:05:07.849Z,53.98
2022-07-28T00:07:35.148Z,53.55
2022-07-28T00:10:02.366Z,53.59
2022-07-28T00:12:29.382Z,53.67
2022-07-28T00:14:56.768Z,53.22
2022-07-28T00:17:23.979Z,53.91
2022-07-28T00:19:51.017Z,53.59
2022-07-28T00:22:18.987Z,54.13
2022-07-28T00:24:46.286Z,54.07
2022-07-28T00:27:19.285Z,53.85
2022-07-28T00:29:50.249Z,54.21
2022-07-28T00:32:20.459Z,54.57
2022-07-28T00:34:47.963Z,54.52
2022-07-28T00:37:15.227Z,54.48
2022-07-28T00:39:43.616Z,54.98
2022-07-28T00:42:10.839Z,55.10
2022-07-28T00:44:41.792Z,55.62
2022-07-28T00:47:09.406Z,55.52
2022-07-28T00:49:36.456Z,55.18
2022-07-28T00:52:06.305Z,55.45
2022-07-28T00:54:34.606Z,55.37
2022-07-28T00:57:01.787Z,55.65
2022-07-28T00:59:28.870Z,56.99
2022-07-28T01:01:56.632Z,56.54
2022-07-28T01:04:25.046Z,56.64
2022-07-28T01:07:27.003Z,56.68
2022-07-28T01:10:35.057Z,57.67
2022-07-28T01:13:28.898Z,57.25
2022-07-28T01:16:06.548Z,57.99
2022-07-28T01:18:48.069Z,57.89
2022-07-28T01:21:24.137Z,57.41
2022-07-28T01:24:25.290Z,58.00
2022-07-28T01:27:09.979Z,58.00
2022-07-28T01:30:02.991Z,57.46
2022-07-28T01:32:44.265Z,58.07
2022-07-28T01:35:23.523Z,58.54
2022-07-28T01:37:59.683Z,58.36
2022-07-28T01:40:32.661Z,57.94
2022-07-28T01:43:06.083Z,57.83
2022-07-28T01:45:38.165Z,57.62
2022-07-28T01:48:07.013Z,57.86
2022-07-28T01:50:37.153Z,57.66
2022-07-28T01:53:05.027Z,57.67
2022-07-28T01:55:33.687Z,57.65
2022-07-28T01:58:02.728Z,57.78
2022-07-28T02:00:30.878Z,58.77
2022-07-28T02:03:00.766Z,57.39
2022-07-28T02:05:28.800Z,58.22
2022-07-28T02:07:57.564Z,57.75
2022-07-28T02:10:27.439Z,57.49
2022-07-28T02:12:55.575Z,56.85
2022-07-28T02:15:24.162Z,56.49
2022-07-28T02:17:54.139Z,56.63
2022-07-28T02:20:23.478Z,56.96
2022-07-28T02:22:52.327Z,56.65
2022-07-28T02:25:21.482Z,56.93
2022-07-28T02:28:01.673Z,57.28
2022-07-28T02:30:49.871Z,57.54
2022-07-28T02:33:57.775Z,58.16
2022-07-28T02:36:25.855Z,58.66
2022-07-28T02:38:56.741Z,57.94
2022-07-28T02:41:33.592Z,58.19
2022-07-28T02:44:07.748Z,57.52
2022-07-28T02:46:44.749Z,57.50
2022-07-28T02:49:19.279Z,57.11
2022-07-28T02:51:49.282Z,56.45
2022-07-28T02:54:18.514Z,57.05
2022-07-28T02:56:53.294Z,57.17
2022-07-28T02:59:23.387Z,56.55
2022-07-28T03:01:52.341Z,57.06
2022-07-28T03:04:38.422Z,56.80
2022-07-28T03:07:06.738Z,56.52
2022-07-28T03:09:47.352Z,55.52
2022-07-28T03:12:15.181Z,55.96
2022-07-28T03:14:42.181Z,56.01
2022-07-28T03:17:09.919Z,56.57
2022-07-28T03:19:37.334Z,56.58
2022-07-28T03:22:05.490Z,56.54
2022-07-28T03:24:54.777Z,56.35
2022-07-28T03:27:53.003Z,56.85
2022-07-28T03:30:27.934Z,57.02
2022-07-28T03:33:01.645Z,56.90
2022-07-28T03:35:31.533Z,57.33
2022-07-28T03:38:23.909Z,57.38
2022-07-28T03:40:55.009Z,56.89
2022-07-28T03:43:25.582Z,57.84
2022-07-28T03:45:53.108Z,57.16
2022-07-28T03:48:23.483Z,57.65
2022-07-28T03:50:50.707Z,57.16
2022-07-28T03:53:26.374Z,57.57
2022-07-28T03:55:53.967Z,57.49
2022-07-28T03:58:26.210Z,58.31
2022-07-28T04:00:57.085Z,57.96
2022-07-28T04:03:42.615Z,58.16
2022-07-28T04:06:13.149Z,58.62
2022-07-28T04:08:40.538Z,57.93
2022-07-28T04:11:08.306Z,58.18
2022-07-28T04:13:37.145Z,58.09
2022-07-28T04:16:07.197Z,58.27
2022-07-28T04:18:35.603Z,57.70
2022-07-28T04:21:02.742Z,57.28
2022-07-28T04:23:30.895Z,57.21
2022-07-28T04:25:57.932Z,56.65
2022-07-28T04:28:25.445Z,57.13
2022-07-28T04:30:52.573Z,57.54
2022-07-28T04:33:20.690Z,57.82
2022-07-28T04:35:47.841Z,57.29
2022-07-28T04:38:17.280Z,57.01
2022-07-28T04:40:44.402Z,56.35
2022-07-28T04:43:11.532Z,56.29
2022-07-28T04:45:38.762Z,56.69
2022-07-28T04:48:14.284Z,56.23
2022-07-28T04:50:45.609Z,57.05
2022-07-28T04:53:13.624Z,57.11
2022-07-28T04:55:40.723Z,56.97
2022-07-28T04:58:09.268Z,57.32
2022-07-28T05:00:36.588Z,56.79
2022-07-28T05:03:04.419Z,56.69
2022-07-28T05:05:31.435Z,57.35
2022-07-28T05:07:58.586Z,56.51
2022-07-28T05:10:25.725Z,56.59
2022-07-28T05:12:54.484Z,56.21
2022-07-28T05:15:21.600Z,56.03
2022-07-28T05:17:49.955Z,55.39
2022-07-28T05:20:17.469Z,55.83
2022-07-28T05:22:53.810Z,54.78
2022-07-28T05:25:23.718Z,54.25
2022-07-28T05:27:51.995Z,53.52
2022-07-28T05:30:19.526Z,53.97
2022-07-28T05:32:48.058Z,53.40
2022-07-28T05:35:15.572Z,52.03
2022-07-28T05:37:43.826Z,52.49
2022-07-28T05:40:15.530Z,51.77
2022-07-28T05:42:47.882Z,50.90
2022-07-28T05:45:17.594Z,49.98
2022-07-28T05:47:52.765Z,49.12
2022-07-28T05:50:23.017Z,47.91
2022-07-28T05:52:51.307Z,47.00
2022-07-28T05:55:19.060Z,45.63
2022-07-28T05:57:46.652Z,45.33
2022-07-28T06:00:23.212Z,43.74
2022-07-28T06:02:50.970Z,42.83
2022-07-28T06:05:20.876Z,41.98
2022-07-28T06:07:50.612Z,43.11
2022-07-28T06:10:21.258Z,42.18
2022-07-28T06:12:52.061Z,41.03
2022-07-28T06:15:28.273Z,40.48
2022-07-28T06:17:56.027Z,41.68
2022-07-28T06:20:25.268Z,40.32
2022-07-28T06:22:55.070Z,40.31
2022-07-28T06:25:25.959Z,39.71
2022-07-28T06:27:59.814Z,37.56
2022-07-28T06:30:27.826Z,38.01
2022-07-28T06:32:56.573Z,38.58
2022-07-28T06:35:24.222Z,39.34
2022-07-28T06:37:52.782Z,38.34
2022-07-28T06:40:21.181Z,36.24
2022-07-28T06:42:49.521Z,36.06
2022-07-28T06:45:20.870Z,37.39
2022-07-28T06:47:53.215Z,35.51
2022-07-28T06:50:25.002Z,35.00
2022-07-28T06:52:57.217Z,34.54
2022-07-28T06:55:34.670Z,34.81
2022-07-28T06:58:03.855Z,33.56
2022-07-28T07:00:31.275Z,34.06
2022-07-28T07:02:58.402Z,33.84
2022-07-28T07:05:26.331Z,33.52
2022-07-28T07:07:53.293Z,33.61
2022-07-28T07:10:20.436Z,33.60
2022-07-28T07:12:47.453Z,34.54
2022-07-28T07:15:14.499Z,32.29
2022-07-28T07:17:42.471Z,32.55
2022-07-28T07:20:10.891Z,31.36
2022-07-28T07:22:47.749Z,31.44
2022-07-28T07:25:18.387Z,30.58
2022-07-28T07:27:46.166Z,31.66
2022-07-28T07:30:19.099Z,30.78
2022-07-28T07:32:46.135Z,30.93
2022-07-28T07:35:13.425Z,29.36
2022-07-28T07:37:40.872Z,30.73
2022-07-28T07:40:09.511Z,30.10
2022-07-28T07:42:37.112Z,31.61
2022-07-28T07:45:04.985Z,33.56
2022-07-28T07:47:31.945Z,33.93
2022-07-28T07:50:01.780Z,35.35
2022-07-28T07:52:30.739Z,32.87
2022-07-28T07:54:57.843Z,32.71
2022-07-28T07:57:24.968Z,33.30
2022-07-28T07:59:52.104Z,34.00
2022-07-28T08:02:19.129Z,34.53
2022-07-28T08:04:46.250Z,36.30
2022-07-28T08:07:14.907Z,36.69
2022-07-28T08:09:41.933Z,35.51
2022-07-28T08:12:09.334Z,35.58
2022-07-28T08:14:36.512Z,35.74
2022-07-28T08:17:03.534Z,34.55
2022-07-28T08:19:30.536Z,32.13
2022-07-28T08:21:57.541Z,32.37
2022-07-28T08:24:27.636Z,33.18
2022-07-28T08:27:02.496Z,32.97
2022-07-28T08:29:30.055Z,34.52
2022-07-28T08:31:57.713Z,35.07
2022-07-28T08:34:31.615Z,35.36
2022-07-28T08:37:03.869Z,34.46
2022-07-28T08:39:36.064Z,34.53
2022-07-28T08:42:24.622Z,32.82
2022-07-28T08:44:58.470Z,29.45
2022-07-28T08:47:40.715Z,30.05
2022-07-28T08:50:14.244Z,30.77
2022-07-28T08:52:45.511Z,29.39
2022-07-28T08:55:19.464Z,29.29
2022-07-28T08:57:47.383Z,26.79
2022-07-28T09:00:15.035Z,26.90
2022-07-28T09:02:46.500Z,26.87
2022-07-28T09:05:24.593Z,27.99
2022-07-28T09:07:55.637Z,29.37
2022-07-28T09:10:23.515Z,28.51
2022-07-28T09:12:51.538Z,27.12
2022-07-28T09:15:19.865Z,27.25
2022-07-28T09:17:46.990Z,27.40
2022-07-28T09:20:17.039Z,25.22
2022-07-28T09:23:03.426Z,26.15
2022-07-28T09:25:31.506Z,25.07
2022-07-28T09:28:14.188Z,26.05
2022-07-28T09:30:53.331Z,25.27
2022-07-28T09:33:41.302Z,25.86
2022-07-28T09:36:16.193Z,25.64
2022-07-28T09:38:44.771Z,23.73
2022-07-28T09:41:12.473Z,22.64
2022-07-28T09:43:43.396Z,21.75
2022-07-28T09:46:20.568Z,21.75
2022-07-28T09:48:51.171Z,23.25
2022-07-28T09:51:24.318Z,21.79
2022-07-28T09:53:52.577Z,23.13
2022-07-28T09:56:20.102Z,24.30
2022-07-28T09:58:59.313Z,23.97
2022-07-28T10:01:29.242Z,24.42
2022-07-28T10:04:04.258Z,23.70
2022-07-28T10:06:35.769Z,22.77
2022-07-28T10:09:07.871Z,21.58
2022-07-28T10:11:41.090Z,19.53
2022-07-28T10:14:08.758Z,20.46
2022-07-28T10:16:42.972Z,21.72
2022-07-28T10:19:10.099Z,20.73
2022-07-28T10:21:45.765Z,20.56
2022-07-28T10:24:22.962Z,21.05
2022-07-28T10:26:52.745Z,21.49
2022-07-28T10:29:22.641Z,19.90
2022-07-28T10:31:53.321Z,21.01
2022-07-28T10:34:39.295Z,19.71
2022-07-28T10:37:23.046Z,19.84
2022-07-28T10:40:10.878Z,19.40
2022-07-28T10:42:43.744Z,18.90
2022-07-28T10:45:12.114Z,19.21
2022-07-28T10:47:39.986Z,19.22
2022-07-28T10:50:08.722Z,19.45
2022-07-28T10:52:48.153Z,20.39
2022-07-28T10:55:55.142Z,21.81
2022-07-28T10:58:46.033Z,21.62
2022-07-28T11:01:49.673Z,21.13
2022-07-28T11:04:46.318Z,22.49
2022-07-28T11:07:20.076Z,22.53
2022-07-28T11:09:47.991Z,22.61
2022-07-28T11:12:16.094Z,22.08
2022-07-28T11:14:44.933Z,21.98
2022-07-28T11:17:13.054Z,22.92
2022-07-28T11:22:34.829Z,22.33
2022-07-28T11:25:19.578Z,22.50
2022-07-28T11:27:51.878Z,22.87
2022-07-28T11:30:28.907Z,22.67
2022-07-28T11:32:56.943Z,21.53
2022-07-28T11:35:26.474Z,20.70
2022-07-28T11:38:04.940Z,21.90
2022-07-28T11:40:33.729Z,22.31
2022-07-28T11:43:36.876Z,21.88
2022-07-28T11:46:07.724Z,23.14
2022-07-28T11:48:41.591Z,24.25
2022-07-28T11:51:13.012Z,22.94
2022-07-28T11:53:46.850Z,22.43
2022-07-28T11:56:38.098Z,23.11
2022-07-28T11:59:11.158Z,23.39
2022-07-28T12:01:38.848Z,23.38
2022-07-28T12:04:14.399Z,23.42
2022-07-28T12:06:43.107Z,24.53
2022-07-28T12:09:13.132Z,24.92
2022-07-28T12:11:41.832Z,24.91
2022-07-28T12:14:16.994Z,24.01
2022-07-28T12:16:49.764Z,25.87
2022-07-28T12:19:19.272Z,26.17
2022-07-28T12:21:55.558Z,25.17
2022-07-28T12:24:45.562Z,24.05
2022-07-28T12:27:15.211Z,25.35
2022-07-28T12:29:42.979Z,24.49
2022-07-28T12:32:10.597Z,26.62
2022-07-28T12:34:40.503Z,26.57
2022-07-28T12:37:12.265Z,24.67
2022-07-28T12:39:44.265Z,23.56
2022-07-28T12:42:13.039Z,24.17
2022-07-28T12:44:43.746Z,23.01
2022-07-28T12:47:13.957Z,24.02
2022-07-28T12:49:41.848Z,24.34
2022-07-28T12:52:23.788Z,23.39
2022-07-28T12:54:55.625Z,23.22
2022-07-28T12:57:49.312Z,25.49
2022-07-28T13:00:24.417Z,24.50
2022-07-28T13:02:56.041Z,25.13
2022-07-28T13:05:58.412Z,23.83
2022-07-28T13:08:29.287Z,24.32
2022-07-28T13:10:58.857Z,24.39
2022-07-28T13:13:27.325Z,24.36
2022-07-28T13:16:18.307Z,23.58
2022-07-28T13:19:13.471Z,23.86
2022-07-28T13:21:57.716Z,23.72
2022-07-28T13:24:28.609Z,25.26
2022-07-28T13:26:56.841Z,24.86
2022-07-28T13:29:24.366Z,23.88
2022-07-28T13:31:56.679Z,23.34
2022-07-28T13:34:23.805Z,24.46
2022-07-28T13:36:52.409Z,22.81
2022-07-28T13:39:19.449Z,23.01
2022-07-28T13:41:58.304Z,23.34
2022-07-28T13:44:31.677Z,23.25
2022-07-28T13:47:00.632Z,23.57
2022-07-28T13:49:31.522Z,24.18
2022-07-28T13:52:00.175Z,23.95
2022-07-28T13:54:28.095Z,23.24
2022-07-28T13:57:15.331Z,23.47
2022-07-28T13:59:43.883Z,24.37
2022-07-28T14:02:15.868Z,24.82
2022-07-28T14:04:45.934Z,24.03
2022-07-28T14:07:22.080Z,24.38
2022-07-28T14:09:51.038Z,25.82
2022-07-28T14:12:18.436Z,26.27
2022-07-28T14:14:48.021Z,25.99
2022-07-28T14:20:11.031Z,25.37
2022-07-28T14:22:38.098Z,25.41
2022-07-28T14:25:05.731Z,25.51
2022-07-28T14:27:33.397Z,25.97
2022-07-28T14:30:03.711Z,25.69
2022-07-28T14:32:32.261Z,25.42
2022-07-28T14:34:59.398Z,25.75
2022-07-28T14:37:26.574Z,24.97
2022-07-28T14:39:53.644Z,25.28
2022-07-28T14:42:20.691Z,24.86
2022-07-28T14:44:47.836Z,25.37
2022-07-28T14:47:15.614Z,25.97
2022-07-28T14:49:57.104Z,26.01
2022-07-28T14:52:27.239Z,25.51
2022-07-28T14:54:58.154Z,25.19
2022-07-28T14:57:50.215Z,25.80
2022-07-28T15:00:17.573Z,25.30
2022-07-28T15:02:45.671Z,25.10
2022-07-28T15:05:13.351Z,24.49
2022-07-28T15:07:42.329Z,24.87
2022-07-28T15:10:10.665Z,25.24
2022-07-28T15:12:38.043Z,25.43
2022-07-28T15:15:05.941Z,25.39
2022-07-28T15:17:33.933Z,25.49
2022-07-28T15:20:01.393Z,25.42
2022-07-28T15:22:28.564Z,25.60
2022-07-28T15:24:55.534Z,24.89
2022-07-28T15:27:23.692Z,24.54
2022-07-28T15:29:52.226Z,24.65
2022-07-28T15:32:27.142Z,25.14
2022-07-28T15:34:55.686Z,24.52
2022-07-28T15:37:23.146Z,24.91
2022-07-28T15:39:50.308Z,24.35
2022-07-28T15:42:17.585Z,24.48
2022-07-28T15:44:44.597Z,24.77
2022-07-28T15:47:11.613Z,25.84
2022-07-28T15:49:38.696Z,25.94
2022-07-28T15:52:06.092Z,25.67
2022-07-28T15:54:33.178Z,25.08
2022-07-28T15:57:00.184Z,25.67
2022-07-28T15:59:49.286Z,25.87
2022-07-28T16:02:17.495Z,25.11
2022-07-28T16:04:54.523Z,25.46
2022-07-28T16:07:23.688Z,25.46
2022-07-28T16:09:54.896Z,25.17
2022-07-28T16:12:25.439Z,25.74
2022-07-28T16:14:56.694Z,26.22
2022-07-28T16:17:25.412Z,25.96
2022-07-28T16:19:53.849Z,25.82
2022-07-28T16:22:21.974Z,25.60
2022-07-28T16:24:50.827Z,26.18
2022-07-28T16:27:18.959Z,25.78
2022-07-28T16:29:46.043Z,26.23
2022-07-28T16:32:13.248Z,26.80
2022-07-28T16:34:40.991Z,27.08
2022-07-28T16:37:08.457Z,26.95
2022-07-28T16:39:36.094Z,26.28
2022-07-28T16:42:03.396Z,26.29
2022-07-28T16:44:31.238Z,25.98
2022-07-28T16:46:58.931Z,26.50
2022-07-28T16:49:26.083Z,26.70
2022-07-28T16:51:54.763Z,25.99
2022-07-28T16:54:22.883Z,26.21
2022-07-28T16:56:50.847Z,26.25
2022-07-28T16:59:17.998Z,26.04
2022-07-28T17:01:46.389Z,26.45
2022-07-28T17:04:16.400Z,26.35
2022-07-28T17:06:43.755Z,26.74
2022-07-28T17:09:11.595Z,26.60
2022-07-28T17:11:38.928Z,26.70
2022-07-28T17:14:05.917Z,26.67
2022-07-28T17:16:33.235Z,27.32
2022-07-28T17:19:00.717Z,27.07
2022-07-28T17:21:27.902Z,28.40
2022-07-28T17:23:55.284Z,27.88
2022-07-28T17:29:12.787Z,28.49
2022-07-28T17:31:39.824Z,28.78
2022-07-28T17:34:08.984Z,29.15
2022-07-28T17:36:36.383Z,29.75
2022-07-28T17:39:07.090Z,29.16
2022-07-28T17:41:34.887Z,29.75
2022-07-28T17:44:02.488Z,29.15
2022-07-28T17:46:30.038Z,30.51
2022-07-28T17:48:58.721Z,31.14
2022-07-28T17:51:27.569Z,31.52
2022-07-28T17:53:55.625Z,31.87
2022-07-28T17:56:22.912Z,31.78
2022-07-28T17:58:50.086Z,32.58
2022-07-28T18:01:17.185Z,31.94
2022-07-28T18:03:57.691Z,33.45
2022-07-28T18:06:36.041Z,32.49
2022-07-28T18:09:12.097Z,32.53
2022-07-28T18:11:57.165Z,32.23
2022-07-28T18:14:27.771Z,31.91
2022-07-28T18:16:55.513Z,32.84
2022-07-28T18:19:22.798Z,33.32
2022-07-28T18:21:49.967Z,32.55
2022-07-28T18:24:18.044Z,33.40
2022-07-28T18:26:45.515Z,33.15
2022-07-28T18:29:12.534Z,34.18
2022-07-28T18:31:45.830Z,34.07
2022-07-28T18:34:14.112Z,34.91
2022-07-28T18:36:41.400Z,35.00
2022-07-28T18:39:08.687Z,35.29
2022-07-28T18:41:46.257Z,35.36
2022-07-28T18:44:19.478Z,35.85
2022-07-28T18:46:47.661Z,36.22
2022-07-28T18:49:15.766Z,36.72
2022-07-28T18:51:45.169Z,37.12
2022-07-28T18:54:17.359Z,37.41
2022-07-28T18:56:45.872Z,37.72
2022-07-28T18:59:12.938Z,37.54
2022-07-28T19:01:39.994Z,38.40
2022-07-28T19:04:07.122Z,37.93
2022-07-28T19:06:35.295Z,38.49
2022-07-28T19:09:02.759Z,38.74
2022-07-28T19:11:32.181Z,38.80
2022-07-28T19:14:00.415Z,39.72
2022-07-28T19:16:27.503Z,39.47
2022-07-28T19:18:54.741Z,39.44
2022-07-28T19:21:21.766Z,38.99
2022-07-28T19:23:49.276Z,39.12
2022-07-28T19:26:16.755Z,39.14
2022-07-28T19:28:44.503Z,39.97
2022-07-28T19:31:11.746Z,39.82
2022-07-28T19:33:42.978Z,40.36
2022-07-28T19:36:13.891Z,40.64
2022-07-28T19:38:41.371Z,39.91
2022-07-28T19:41:09.935Z,41.21
2022-07-28T19:43:37.522Z,41.44
2022-07-28T19:46:05.254Z,41.43
2022-07-28T19:48:32.421Z,41.64
2022-07-28T19:51:00.033Z,44.44
2022-07-28T19:53:31.907Z,46.31
2022-07-28T19:55:59.692Z,47.48
2022-07-28T19:58:26.764Z,46.88
2022-07-28T20:00:56.698Z,47.38
2022-07-28T20:04:00.878Z,47.14
2022-07-28T20:06:12.699Z,48.74
2022-07-28T20:08:40.152Z,48.87
2022-07-28T20:11:08.199Z,48.65
2022-07-28T20:13:35.684Z,48.02
2022-07-28T20:16:02.695Z,49.37
2022-07-28T20:18:29.716Z,50.56
2022-07-28T20:21:06.256Z,51.42
2022-07-28T20:23:33.510Z,50.61
2022-07-28T20:26:00.690Z,50.42
2022-07-28T20:28:27.840Z,51.22
2022-07-28T20:30:55.104Z,51.10
2022-07-28T20:33:22.239Z,53.19
2022-07-28T20:35:50.099Z,52.55
2022-07-28T20:38:23.341Z,52.73
2022-07-28T20:40:51.713Z,52.83
2022-07-28T20:43:18.850Z,53.07
2022-07-28T20:45:46.596Z,53.31
2022-07-28T20:48:14.607Z,54.13
2022-07-28T20:50:42.821Z,53.50
2022-07-28T20:53:10.585Z,55.66
2022-07-28T20:55:38.081Z,54.76
2022-07-28T20:58:06.115Z,55.24
2022-07-28T21:00:33.648Z,54.79
2022-07-28T21:03:00.894Z,54.13
2022-07-28T21:05:34.924Z,52.98
2022-07-28T21:08:06.464Z,52.71
2022-07-28T21:10:37.113Z,54.46
2022-07-28T21:13:04.442Z,54.12
2022-07-28T21:15:31.836Z,54.68
2022-07-28T21:17:59.814Z,55.84
2022-07-28T21:20:27.113Z,55.46
2022-07-28T21:22:54.581Z,55.45
2022-07-28T21:25:22.813Z,56.63
2022-07-28T21:28:08.791Z,55.99
2022-07-28T21:30:37.088Z,55.66
2022-07-28T21:33:04.299Z,57.11
2022-07-28T21:35:31.515Z,56.46
2022-07-28T21:37:58.569Z,56.80
2022-07-28T21:40:26.382Z,57.28
2022-07-28T21:42:53.609Z,56.94
2022-07-28T21:45:21.275Z,57.33
2022-07-28T21:47:48.899Z,56.80
2022-07-28T21:50:16.266Z,58.19
2022-07-28T21:52:43.574Z,58.58
2022-07-28T21:55:10.810Z,58.50
2022-07-28T21:57:38.219Z,58.16
2022-07-28T22:00:09.095Z,60.26
2022-07-28T22:02:36.278Z,60.08
2022-07-28T22:05:05.041Z,60.78
2022-07-28T22:07:32.287Z,61.36
2022-07-28T22:09:59.342Z,61.78
2022-07-28T22:12:26.323Z,62.03
2022-07-28T22:14:53.373Z,62.67
2022-07-28T22:17:20.560Z,61.95
2022-07-28T22:19:47.673Z,62.44
2022-07-28T22:22:18.266Z,63.15
2022-07-28T22:24:46.136Z,61.95
2022-07-28T22:27:13.396Z,61.84
2022-07-28T22:29:40.413Z,61.43
2022-07-28T22:32:26.657Z,63.48
2022-07-28T22:34:58.157Z,63.72
2022-07-28T22:37:25.433Z,63.26
2022-07-28T22:39:55.704Z,64.38
2022-07-28T22:42:22.875Z,64.88
2022-07-28T22:44:50.083Z,63.51
2022-07-28T22:47:17.171Z,64.65
2022-07-28T22:49:44.275Z,63.94
2022-07-28T22:52:11.402Z,64.56
2022-07-28T22:54:39.976Z,64.17
2022-07-28T22:57:58.058Z,65.96
2022-07-28T23:00:26.877Z,64.28
2022-07-28T23:02:55.116Z,65.65
2022-07-28T23:05:22.591Z,65.88
2022-07-28T23:07:51.126Z,65.49
2022-07-28T23:10:20.731Z,66.83
2022-07-28T23:12:47.794Z,66.29
2022-07-28T23:15:14.794Z,66.57
2022-07-28T23:17:41.949Z,65.72
2022-07-28T23:20:10.105Z,65.33
2022-07-28T23:22:38.022Z,66.70
2022-07-28T23:25:05.774Z,67.52
2022-07-28T23:27:32.856Z,67.07
2022-07-28T23:29:59.996Z,67.08
2022-07-28T23:32:27.052Z,67.18
2022-07-28T23:34:54.241Z,67.79
2022-07-28T23:37:21.342Z,67.35
2022-07-28T23:39:48.464Z,67.64
2022-07-28T23:42:16.402Z,67.90
2022-07-28T23:44:43.501Z,67.01
2022-07-28T23:47:10.769Z,67.33
2022-07-28T23:49:37.912Z,66.61
2022-07-28T23:52:05.418Z,67.30
2022-07-28T23:54:32.631Z,68.21
2022-07-28T23:56:59.730Z,69.45
2022-07-28T23:59:26.775Z,69.18
